createdAt,value
2023-05-30T00:03:13.872Z,100469.61
2023-05-30T00:08:16.559Z,100461.70
2023-05-30T00:13:20.479Z,100461.83
2023-05-30T00:18:23.628Z,100462.63
2023-05-30T00:23:26.195Z,100462.09
2023-05-30T00:28:29.140Z,100470.06
2023-05-30T00:33:32.245Z,100467.93
2023-05-30T00:38:34.880Z,100460.61
2023-05-30T00:43:38.655Z,100463.77
2023-05-30T00:48:41.788Z,100459.23
2023-05-30T00:53:44.860Z,100462.98
2023-05-30T00:58:47.501Z,100461.88
2023-05-30T01:03:51.307Z,100453.65
2023-05-30T01:08:53.936Z,100453.34
2023-05-30T01:14:38.321Z,100456.23
2023-05-30T01:20:10.428Z,100455.98
2023-05-30T01:25:22.267Z,100461.28
2023-05-30T01:30:27.226Z,100468.59
2023-05-30T01:35:29.826Z,100470.25
2023-05-30T01:40:33.487Z,100473.05
2023-05-30T01:45:54.840Z,100476.95
2023-05-30T01:51:00.192Z,100477.73
2023-05-30T01:56:04.453Z,100484.71
2023-05-30T02:01:09.018Z,100485.31
2023-05-30T02:06:12.184Z,100487.77
2023-05-30T02:11:14.735Z,100489.70
2023-05-30T02:16:19.507Z,100486.61
2023-05-30T02:21:22.212Z,100481.02
2023-05-30T02:26:27.250Z,100486.13
2023-05-30T02:31:29.954Z,100483.20
2023-05-30T02:36:33.921Z,100482.48
2023-05-30T02:41:38.737Z,100484.89
2023-05-30T02:46:41.347Z,100487.75
2023-05-30T02:51:44.470Z,100495.67
2023-05-30T02:56:47.072Z,100496.98
2023-05-30T03:01:50.021Z,100505.61
2023-05-30T03:06:52.754Z,100512.16
2023-05-30T03:11:55.531Z,100518.38
2023-05-30T03:16:58.082Z,100524.67
2023-05-30T03:22:01.316Z,100524.95
2023-05-30T03:27:05.059Z,100527.05
2023-05-30T03:32:08.647Z,100531.04
2023-05-30T03:37:11.437Z,100534.48
2023-05-30T03:42:14.089Z,100540.50
2023-05-30T03:47:16.707Z,100542.16
2023-05-30T03:52:19.493Z,100551.34
2023-05-30T03:57:22.192Z,100556.48
2023-05-30T04:02:24.833Z,100561.79
2023-05-30T04:07:28.337Z,100562.06
2023-05-30T04:12:31.168Z,100569.80
2023-05-30T04:17:33.787Z,100571.90
2023-05-30T04:22:36.694Z,100573.72
2023-05-30T04:27:40.901Z,100570.84
2023-05-30T04:32:53.781Z,100573.91
2023-05-30T04:37:56.731Z,100574.36
2023-05-30T04:43:00.231Z,100573.20
2023-05-30T04:48:04.960Z,100577.70
2023-05-30T04:53:07.644Z,100577.01
2023-05-30T04:58:10.312Z,100584.53
2023-05-30T05:03:13.240Z,100595.73
2023-05-30T05:08:16.213Z,100598.13
2023-05-30T05:13:18.776Z,100607.55
2023-05-30T05:18:21.346Z,100612.89
2023-05-30T05:23:24.452Z,100619.10
2023-05-30T05:28:27.212Z,100616.05
2023-05-30T05:33:29.857Z,100621.03
2023-05-30T05:38:32.546Z,100626.54
2023-05-30T05:43:37.147Z,100629.58
2023-05-30T05:48:39.736Z,100632.51
2023-05-30T05:53:42.298Z,100637.63
2023-05-30T05:58:44.997Z,100643.02
2023-05-30T06:03:47.785Z,100644.34
2023-05-30T06:08:50.574Z,100642.66
2023-05-30T06:13:53.115Z,100644.46
2023-05-30T06:18:55.790Z,100645.31
2023-05-30T06:23:58.449Z,100639.54
2023-05-30T06:29:01.033Z,100641.41
2023-05-30T06:34:03.895Z,100647.04
2023-05-30T06:39:06.940Z,100648.54
2023-05-30T06:44:10.059Z,100650.50
2023-05-30T06:49:12.615Z,100649.21
2023-05-30T06:54:15.192Z,100648.17
2023-05-30T06:59:17.816Z,100652.53
2023-05-30T07:04:21.158Z,100648.31
2023-05-30T07:09:23.895Z,100649.58
2023-05-30T07:14:26.547Z,100652.14
2023-05-30T07:19:29.147Z,100648.18
2023-05-30T07:24:31.692Z,100652.23
2023-05-30T07:29:34.241Z,100657.56
2023-05-30T07:34:37.189Z,100658.12
2023-05-30T07:39:39.906Z,100650.90
2023-05-30T07:44:42.558Z,100644.36
2023-05-30T07:49:45.155Z,100645.11
2023-05-30T07:54:47.812Z,100643.34
2023-05-30T07:59:50.966Z,100642.29
2023-05-30T08:04:54.685Z,100645.53
2023-05-30T08:09:57.588Z,100648.55
2023-05-30T08:15:00.431Z,100647.92
2023-05-30T08:20:04.822Z,100650.10
2023-05-30T08:25:08.631Z,100655.39
2023-05-30T08:30:11.691Z,100656.30
2023-05-30T08:35:15.122Z,100657.14
2023-05-30T08:40:18.735Z,100661.27
2023-05-30T08:45:21.437Z,100668.25
2023-05-30T08:50:25.452Z,100668.59
2023-05-30T08:55:34.134Z,100669.70
2023-05-30T09:00:38.202Z,100670.92
2023-05-30T09:05:41.434Z,100676.31
2023-05-30T09:10:49.434Z,100686.09
2023-05-30T09:15:53.101Z,100686.05
2023-05-30T09:20:56.966Z,100689.47
2023-05-30T09:26:01.373Z,100692.02
2023-05-30T09:31:05.041Z,100697.09
2023-05-30T09:36:13.417Z,100699.90
2023-05-30T09:41:17.051Z,100704.61
2023-05-30T09:46:21.341Z,100702.38
2023-05-30T09:51:30.083Z,100708.73
2023-05-30T09:56:40.959Z,100712.65
2023-05-30T10:01:52.061Z,100700.92
2023-05-30T10:06:55.898Z,100701.13
2023-05-30T10:12:04.280Z,100695.39
2023-05-30T10:17:09.089Z,100694.59
2023-05-30T10:22:12.678Z,100697.63
2023-05-30T10:27:19.354Z,100697.67
2023-05-30T10:32:27.393Z,100700.19
2023-05-30T10:37:30.401Z,100700.84
2023-05-30T10:42:44.965Z,100696.80
2023-05-30T10:48:08.884Z,100699.50
2023-05-30T10:53:16.886Z,100697.41
2023-05-30T10:58:39.201Z,100693.57
2023-05-30T11:03:46.583Z,100693.48
2023-05-30T11:08:53.549Z,100698.21
2023-05-30T11:13:58.031Z,100693.90
2023-05-30T11:19:13.180Z,100690.02
2023-05-30T11:24:18.121Z,100694.77
2023-05-30T11:29:49.002Z,100695.65
2023-05-30T11:35:04.538Z,100693.89
2023-05-30T11:40:14.155Z,100692.49
2023-05-30T11:45:18.500Z,100699.67
2023-05-30T11:50:22.270Z,100700.05
2023-05-30T11:55:25.016Z,100697.73
2023-05-30T12:00:27.574Z,100698.72
2023-05-30T12:05:30.402Z,100702.52
2023-05-30T12:10:33.088Z,100707.21
2023-05-30T12:15:38.857Z,100717.52
2023-05-30T12:20:45.362Z,100709.96
2023-05-30T12:25:53.842Z,100701.70
2023-05-30T12:30:57.121Z,100704.41
2023-05-30T12:35:59.761Z,100708.01
2023-05-30T12:41:02.452Z,100707.02
2023-05-30T12:46:13.233Z,100708.85
2023-05-30T12:51:15.967Z,100708.66
2023-05-30T12:56:18.569Z,100710.53
2023-05-30T13:01:21.858Z,100709.79
2023-05-30T13:06:24.530Z,100712.57
2023-05-30T13:11:27.398Z,100719.63
2023-05-30T13:16:30.189Z,100716.00
2023-05-30T13:21:32.799Z,100715.63
2023-05-30T13:26:35.768Z,100715.02
2023-05-30T13:31:38.515Z,100715.46
2023-05-30T13:36:41.133Z,100723.74
2023-05-30T13:41:43.713Z,100726.58
2023-05-30T13:46:46.895Z,100726.56
2023-05-30T13:51:49.454Z,100725.49
2023-05-30T13:56:52.047Z,100719.68
2023-05-30T14:01:55.369Z,100722.38
2023-05-30T14:06:59.100Z,100726.70
2023-05-30T14:12:01.797Z,100719.98
2023-05-30T14:17:05.063Z,100725.52
2023-05-30T14:22:11.318Z,100727.00
2023-05-30T14:27:14.304Z,100736.85
2023-05-30T14:32:16.957Z,100732.05
2023-05-30T14:37:19.599Z,100740.27
2023-05-30T14:42:22.502Z,100737.54
2023-05-30T14:47:26.122Z,100739.70
2023-05-30T14:52:28.747Z,100743.63
2023-05-30T14:57:31.503Z,100745.92
2023-05-30T15:02:34.190Z,100747.78
2023-05-30T15:07:36.982Z,100745.80
2023-05-30T15:12:40.178Z,100741.15
2023-05-30T15:17:42.839Z,100746.83
2023-05-30T15:22:45.747Z,100754.64
2023-05-30T15:27:50.746Z,100746.33
2023-05-30T15:32:54.651Z,100751.09
2023-05-30T15:37:57.647Z,100747.05
2023-05-30T15:43:00.742Z,100746.11
2023-05-30T15:48:03.658Z,100751.98
2023-05-30T15:53:06.307Z,100757.96
2023-05-30T15:58:08.967Z,100759.70
2023-05-30T16:03:12.431Z,100760.09
2023-05-30T16:08:14.998Z,100761.98
2023-05-30T16:13:17.935Z,100769.61
2023-05-30T16:18:20.670Z,100772.35
2023-05-30T16:23:23.366Z,100770.55
2023-05-30T16:28:25.928Z,100767.20
2023-05-30T16:33:28.577Z,100762.05
2023-05-30T16:38:35.446Z,100762.93
2023-05-30T16:43:38.310Z,100765.67
2023-05-30T16:48:40.885Z,100774.59
2023-05-30T16:53:43.476Z,100772.11
2023-05-30T16:58:46.371Z,100773.18
2023-05-30T17:03:49.090Z,100781.35
2023-05-30T17:08:52.032Z,100781.77
2023-05-30T17:13:55.216Z,100785.09
2023-05-30T17:18:59.589Z,100789.11
2023-05-30T17:24:02.215Z,100791.44
2023-05-30T17:29:05.388Z,100787.86
2023-05-30T17:34:08.034Z,100787.67
2023-05-30T17:39:12.121Z,100796.17
2023-05-30T17:44:15.185Z,100795.77
2023-05-30T17:49:17.925Z,100796.85
2023-05-30T17:54:21.022Z,100806.23
2023-05-30T17:59:23.829Z,100805.14
2023-05-30T18:04:27.147Z,100805.55
2023-05-30T18:09:30.217Z,100806.48
2023-05-30T18:14:34.123Z,100807.55
2023-05-30T18:19:37.152Z,100818.80
2023-05-30T18:24:39.776Z,100815.50
2023-05-30T18:29:44.355Z,100815.48
2023-05-30T18:34:46.923Z,100822.86
2023-05-30T18:39:50.144Z,100822.46
2023-05-30T18:44:53.097Z,100825.69
2023-05-30T18:49:56.027Z,100830.73
2023-05-30T18:54:58.630Z,100836.63
2023-05-30T19:00:01.930Z,100839.75
2023-05-30T19:05:05.389Z,100841.11
2023-05-30T19:10:08.967Z,100840.69
2023-05-30T19:15:11.723Z,100847.45
2023-05-30T19:20:14.776Z,100850.23
2023-05-30T19:25:18.585Z,100855.88
2023-05-30T19:30:22.211Z,100861.67
2023-05-30T19:35:25.134Z,100865.70
2023-05-30T19:40:28.362Z,100870.88
2023-05-30T19:45:31.344Z,100875.77
2023-05-30T19:50:34.921Z,100881.52
2023-05-30T19:55:38.747Z,100882.57
2023-05-30T20:00:41.970Z,100887.89
2023-05-30T20:05:46.536Z,100884.95
2023-05-30T20:10:49.372Z,100883.79
2023-05-30T20:15:52.560Z,100883.92
2023-05-30T20:20:55.656Z,100882.95
2023-05-30T20:25:58.503Z,100883.92
2023-05-30T20:31:01.412Z,100892.85
2023-05-30T20:36:04.459Z,100893.62
2023-05-30T20:41:07.176Z,100886.86
2023-05-30T20:46:09.775Z,100892.20
2023-05-30T20:51:12.693Z,100894.52
2023-05-30T20:56:15.321Z,100892.96
2023-05-30T21:01:17.957Z,100892.29
2023-05-30T21:06:20.900Z,100893.17
2023-05-30T21:11:23.542Z,100888.95
2023-05-30T21:16:26.816Z,100891.79
2023-05-30T21:21:29.497Z,100893.05
2023-05-30T21:26:32.520Z,100892.55
2023-05-30T21:31:35.179Z,100894.86
2023-05-30T21:36:39.205Z,100904.09
2023-05-30T21:41:43.453Z,100908.42
2023-05-30T21:46:46.137Z,100907.98
2023-05-30T21:51:48.797Z,100910.04
2023-05-30T21:56:51.370Z,100918.20
2023-05-30T22:01:53.926Z,100915.61
2023-05-30T22:06:57.212Z,100913.74
2023-05-30T22:11:59.804Z,100913.86
2023-05-30T22:17:02.441Z,100911.12
2023-05-30T22:22:06.506Z,100913.27
2023-05-30T22:27:13.056Z,100908.60
2023-05-30T22:32:15.637Z,100905.99
2023-05-30T22:37:18.354Z,100904.11
2023-05-30T22:42:21.012Z,100910.34
2023-05-30T22:47:23.646Z,100908.93
2023-05-30T22:52:26.277Z,100910.86
2023-05-30T22:57:28.923Z,100909.27
2023-05-30T23:02:31.585Z,100913.86
2023-05-30T23:07:34.251Z,100913.96
2023-05-30T23:12:36.961Z,100911.14
2023-05-30T23:17:39.619Z,100914.63
2023-05-30T23:22:42.222Z,100913.28
2023-05-30T23:27:44.755Z,100911.42
2023-05-30T23:32:47.349Z,100911.58
2023-05-30T23:37:50.071Z,100913.77
2023-05-30T23:42:52.675Z,100908.25
2023-05-30T23:47:55.486Z,100917.86
2023-05-30T23:52:58.079Z,100922.64
2023-05-30T23:58:00.711Z,100922.08
